createdAt,value
2018-02-07T00:02:16.871Z,17.33
2018-02-07T00:04:44.431Z,18.20
2018-02-07T00:07:11.923Z,18.33
2018-02-07T00:09:39.447Z,16.73
2018-02-07T00:12:07.006Z,17.83
2018-02-07T00:14:34.500Z,17.17
2018-02-07T00:17:02.130Z,17.03
2018-02-07T00:19:29.684Z,17.80
2018-02-07T00:21:57.141Z,17.97
2018-02-07T00:24:25.623Z,16.30
2018-02-07T00:26:53.116Z,18.60
2018-02-07T00:29:20.519Z,18.10
2018-02-07T00:31:47.920Z,17.40
2018-02-07T00:34:15.451Z,17.90
2018-02-07T00:36:42.865Z,19.90
2018-02-07T00:39:10.365Z,17.80
2018-02-07T00:41:37.925Z,18.37
2018-02-07T00:44:05.384Z,17.80
2018-02-07T00:46:32.940Z,18.40
2018-02-07T00:49:00.501Z,19.37
2018-02-07T00:51:28.059Z,19.40
2018-02-07T00:53:55.620Z,19.10
2018-02-07T00:56:23.080Z,18.80
2018-02-07T00:58:50.636Z,19.07
2018-02-07T01:01:18.179Z,19.30
2018-02-07T01:03:45.779Z,17.47
2018-02-07T01:06:13.314Z,20.20
2018-02-07T01:08:40.772Z,19.27
2018-02-07T01:11:08.256Z,19.93
2018-02-07T01:13:35.890Z,20.23
2018-02-07T01:16:03.552Z,21.13
2018-02-07T01:18:31.111Z,19.07
2018-02-07T01:20:58.671Z,19.50
2018-02-07T01:23:26.100Z,20.13
2018-02-07T01:25:53.585Z,20.57
2018-02-07T01:28:21.144Z,20.93
2018-02-07T01:30:48.703Z,20.40
2018-02-07T01:33:16.264Z,22.20
2018-02-07T01:35:43.721Z,21.47
2018-02-07T01:38:11.280Z,23.47
2018-02-07T01:40:38.772Z,21.50
2018-02-07T01:43:06.227Z,20.83
2018-02-07T01:45:33.754Z,20.97
2018-02-07T01:48:01.313Z,20.63
2018-02-07T01:50:28.872Z,21.57
2018-02-07T01:52:56.464Z,22.67
2018-02-07T01:55:23.940Z,22.50
2018-02-07T01:57:51.550Z,23.90
2018-02-07T02:00:19.056Z,22.30
2018-02-07T02:02:46.568Z,22.43
2018-02-07T02:05:14.128Z,23.13
2018-02-07T02:07:41.584Z,22.50
2018-02-07T02:10:09.142Z,21.70
2018-02-07T02:12:36.805Z,23.17
2018-02-07T02:15:04.363Z,21.47
2018-02-07T02:17:31.922Z,22.03
2018-02-07T02:19:59.482Z,21.53
2018-02-07T02:22:27.042Z,22.40
2018-02-07T02:24:54.537Z,23.07
2018-02-07T02:27:22.196Z,22.60
2018-02-07T02:29:49.720Z,22.90
2018-02-07T02:32:17.279Z,22.13
2018-02-07T02:34:44.839Z,22.67
2018-02-07T02:37:12.399Z,23.03
2018-02-07T02:39:39.958Z,22.40
2018-02-07T02:42:07.518Z,21.30
2018-02-07T02:44:35.078Z,22.83
2018-02-07T02:47:02.639Z,22.43
2018-02-07T02:49:30.132Z,22.90
2018-02-07T02:51:57.652Z,23.60
2018-02-07T02:54:25.109Z,22.63
2018-02-07T02:56:52.671Z,21.50
2018-02-07T02:59:20.125Z,23.80
2018-02-07T03:01:47.583Z,22.70
2018-02-07T03:04:15.142Z,23.87
2018-02-07T03:06:42.702Z,23.10
2018-02-07T03:09:10.261Z,23.03
2018-02-07T03:11:37.821Z,21.37
2018-02-07T03:14:05.383Z,22.50
2018-02-07T03:16:32.939Z,23.50
2018-02-07T03:19:00.499Z,23.47
2018-02-07T03:21:27.954Z,23.33
2018-02-07T03:23:55.515Z,22.97
2018-02-07T03:26:23.075Z,23.30
2018-02-07T03:28:50.634Z,22.60
2018-02-07T03:31:18.194Z,22.40
2018-02-07T03:33:45.770Z,22.80
2018-02-07T03:36:13.313Z,23.77
2018-02-07T03:38:41.077Z,22.60
2018-02-07T03:41:08.661Z,23.40
2018-02-07T03:43:36.093Z,24.10
2018-02-07T03:46:03.652Z,21.97
2018-02-07T03:48:31.212Z,22.10
2018-02-07T03:50:58.771Z,22.67
2018-02-07T03:53:26.330Z,23.77
2018-02-07T03:55:53.890Z,22.00
2018-02-07T03:58:21.868Z,23.80
2018-02-07T04:00:49.420Z,23.47
2018-02-07T04:03:16.978Z,23.30
2018-02-07T04:05:44.538Z,23.20
2018-02-07T04:08:12.200Z,25.00
2018-02-07T04:10:39.692Z,24.00
2018-02-07T04:13:07.216Z,23.73
2018-02-07T04:15:34.776Z,24.17
2018-02-07T04:18:02.338Z,24.53
2018-02-07T04:20:29.895Z,24.63
2018-02-07T04:22:57.457Z,24.80
2018-02-07T04:25:25.013Z,24.20
2018-02-07T04:27:52.573Z,23.97
2018-02-07T04:30:20.132Z,23.30
2018-02-07T04:32:47.535Z,25.03
2018-02-07T04:35:15.046Z,24.50
2018-02-07T04:37:42.496Z,22.90
2018-02-07T04:40:10.063Z,23.47
2018-02-07T04:42:37.621Z,24.27
2018-02-07T04:45:05.180Z,22.47
2018-02-07T04:47:32.680Z,25.80
2018-02-07T04:50:00.200Z,25.17
2018-02-07T04:52:27.603Z,25.60
2018-02-07T04:54:55.111Z,24.37
2018-02-07T04:57:22.571Z,23.47
2018-02-07T04:59:50.064Z,22.47
2018-02-07T05:02:17.524Z,24.10
2018-02-07T05:04:44.936Z,23.50
2018-02-07T05:07:12.400Z,25.63
2018-02-07T05:09:39.970Z,23.60
2018-02-07T05:12:07.516Z,24.43
2018-02-07T05:14:35.078Z,25.30
2018-02-07T05:17:02.635Z,23.50
2018-02-07T05:19:30.195Z,23.33
2018-02-07T05:21:57.754Z,23.33
2018-02-07T05:24:25.312Z,25.53
2018-02-07T05:26:52.805Z,22.93
2018-02-07T05:29:20.333Z,23.60
2018-02-07T05:31:47.784Z,26.57
2018-02-07T05:34:15.347Z,23.73
2018-02-07T05:36:42.748Z,24.77
2018-02-07T05:39:10.262Z,24.43
2018-02-07T05:41:37.821Z,25.07
2018-02-07T05:44:05.993Z,24.57
2018-02-07T05:46:33.484Z,23.97
2018-02-07T05:49:01.012Z,24.60
2018-02-07T05:51:28.500Z,24.20
2018-02-07T05:53:56.130Z,25.47
2018-02-07T05:56:23.792Z,23.50
2018-02-07T05:58:51.351Z,25.30
2018-02-07T06:01:18.911Z,23.47
2018-02-07T06:03:46.674Z,27.40
2018-02-07T06:06:14.276Z,25.43
2018-02-07T06:08:41.829Z,24.90
2018-02-07T06:11:09.352Z,26.50
2018-02-07T06:13:36.913Z,25.60
2018-02-07T06:16:04.344Z,26.53
2018-02-07T06:18:31.791Z,25.60
2018-02-07T06:20:59.282Z,27.50
2018-02-07T06:23:26.843Z,25.27
2018-02-07T06:25:54.452Z,25.07
2018-02-07T06:28:21.962Z,26.57
2018-02-07T06:30:49.522Z,27.40
2018-02-07T06:33:17.182Z,27.47
2018-02-07T06:35:44.742Z,28.83
2018-02-07T06:38:12.301Z,27.83
2018-02-07T06:40:39.736Z,27.13
2018-02-07T06:43:07.321Z,27.80
2018-02-07T06:45:34.877Z,28.07
2018-02-07T06:48:02.372Z,29.10
2018-02-07T06:50:29.996Z,27.53
2018-02-07T06:52:57.401Z,28.90
2018-02-07T06:55:24.845Z,27.93
2018-02-07T06:57:52.366Z,28.07
2018-02-07T07:00:19.962Z,29.00
2018-02-07T07:02:47.502Z,29.40
2018-02-07T07:05:15.045Z,29.53
2018-02-07T07:07:42.604Z,30.63
2018-02-07T07:10:10.163Z,30.23
2018-02-07T07:12:37.724Z,30.70
2018-02-07T07:15:05.217Z,30.50
2018-02-07T07:17:32.740Z,30.50
2018-02-07T07:20:00.300Z,30.70
2018-02-07T07:22:27.858Z,30.40
2018-02-07T07:24:55.418Z,31.17
2018-02-07T07:27:22.977Z,32.17
2018-02-07T07:29:50.473Z,31.17
2018-02-07T07:32:17.994Z,29.60
2018-02-07T07:34:45.452Z,31.50
2018-02-07T07:37:13.011Z,30.80
2018-02-07T07:39:40.570Z,32.77
2018-02-07T07:42:08.060Z,33.90
2018-02-07T07:44:35.467Z,33.37
2018-02-07T07:47:03.044Z,32.53
2018-02-07T07:49:30.604Z,32.50
2018-02-07T07:51:58.201Z,33.80
2018-02-07T07:54:25.662Z,34.53
2018-02-07T07:56:53.179Z,35.67
2018-02-07T07:59:20.738Z,32.07
2018-02-07T08:01:48.196Z,33.93
2018-02-07T08:04:15.754Z,31.90
2018-02-07T08:06:43.415Z,32.60
2018-02-07T08:09:10.978Z,33.70
2018-02-07T08:11:38.572Z,35.47
2018-02-07T08:14:06.744Z,34.37
2018-02-07T08:16:34.204Z,35.50
2018-02-07T08:19:01.666Z,34.20
2018-02-07T08:21:29.284Z,32.93
2018-02-07T08:23:56.844Z,34.50
2018-02-07T08:26:24.335Z,35.83
2018-02-07T08:28:51.863Z,35.20
2018-02-07T08:31:19.388Z,34.30
2018-02-07T08:33:47.082Z,35.67
2018-02-07T08:36:14.642Z,35.33
2018-02-07T08:38:42.140Z,36.07
2018-02-07T08:41:09.771Z,35.30
2018-02-07T08:43:37.319Z,39.20
2018-02-07T08:46:04.880Z,38.17
2018-02-07T08:48:32.441Z,37.00
2018-02-07T08:50:59.868Z,39.07
2018-02-07T08:53:27.455Z,38.47
2018-02-07T08:55:55.015Z,38.93
2018-02-07T08:58:22.424Z,37.63
2018-02-07T09:00:49.868Z,37.23
2018-02-07T09:03:17.341Z,36.50
2018-02-07T09:05:44.776Z,38.13
2018-02-07T09:08:12.608Z,37.20
2018-02-07T09:10:40.166Z,38.30
2018-02-07T09:13:07.726Z,36.70
2018-02-07T09:15:35.164Z,38.33
2018-02-07T09:18:02.947Z,39.53
2018-02-07T09:20:31.223Z,39.57
2018-02-07T09:22:58.721Z,38.43
2018-02-07T09:25:26.242Z,41.03
2018-02-07T09:27:53.799Z,38.80
2018-02-07T09:30:21.292Z,39.33
2018-02-07T09:32:48.816Z,37.47
2018-02-07T09:35:16.375Z,39.73
2018-02-07T09:37:43.935Z,40.67
2018-02-07T09:40:11.494Z,40.40
2018-02-07T09:42:39.084Z,39.37
2018-02-07T09:45:06.548Z,41.30
2018-02-07T09:47:34.170Z,40.47
2018-02-07T09:50:01.604Z,39.70
2018-02-07T09:52:29.125Z,40.43
2018-02-07T09:54:56.751Z,39.67
2018-02-07T09:57:24.241Z,39.90
2018-02-07T09:59:51.764Z,38.87
2018-02-07T10:02:19.328Z,39.07
2018-02-07T10:04:46.883Z,39.23
2018-02-07T10:07:14.443Z,39.17
2018-02-07T10:09:42.002Z,40.00
2018-02-07T10:12:09.561Z,38.37
2018-02-07T10:14:37.056Z,40.20
2018-02-07T10:17:04.579Z,39.00
2018-02-07T10:19:32.137Z,41.40
2018-02-07T10:21:59.644Z,38.43
2018-02-07T10:24:27.101Z,38.60
2018-02-07T10:26:54.653Z,37.73
2018-02-07T10:29:22.272Z,35.70
2018-02-07T10:31:49.687Z,37.93
2018-02-07T10:34:17.119Z,37.17
2018-02-07T10:36:44.644Z,36.73
2018-02-07T10:39:12.206Z,38.07
2018-02-07T10:41:39.659Z,34.77
2018-02-07T10:44:07.118Z,35.97
2018-02-07T10:46:34.611Z,33.97
2018-02-07T10:49:02.133Z,34.93
2018-02-07T10:51:29.693Z,35.33
2018-02-07T10:53:57.186Z,36.03
2018-02-07T10:56:24.709Z,36.73
2018-02-07T10:58:52.268Z,33.70
2018-02-07T11:01:19.764Z,40.73
2018-02-07T11:03:47.389Z,40.30
2018-02-07T11:06:14.845Z,37.87
2018-02-07T11:08:42.405Z,37.07
2018-02-07T11:11:09.966Z,40.10
2018-02-07T11:13:37.524Z,39.77
2018-02-07T11:16:05.082Z,40.80
2018-02-07T11:18:32.642Z,40.50
2018-02-07T11:21:00.202Z,43.40
2018-02-07T11:23:27.762Z,39.97
2018-02-07T11:25:55.322Z,38.37
2018-02-07T11:28:22.881Z,37.67
2018-02-07T11:30:50.337Z,36.70
2018-02-07T11:33:17.897Z,35.63
2018-02-07T11:35:45.455Z,36.53
2018-02-07T11:38:13.015Z,36.23
2018-02-07T11:40:40.574Z,36.03
2018-02-07T11:43:08.134Z,36.30
2018-02-07T11:45:35.568Z,36.33
2018-02-07T11:48:03.100Z,34.50
2018-02-07T11:50:30.608Z,35.47
2018-02-07T11:52:58.166Z,34.10
2018-02-07T11:55:25.726Z,34.67
2018-02-07T11:57:53.152Z,35.67
2018-02-07T12:00:20.845Z,35.30
2018-02-07T12:02:48.303Z,36.93
2018-02-07T12:05:15.862Z,36.20
2018-02-07T12:07:43.424Z,36.50
2018-02-07T12:10:10.981Z,36.30
2018-02-07T12:12:38.542Z,34.87
2018-02-07T12:15:06.101Z,35.87
2018-02-07T12:17:33.658Z,34.27
2018-02-07T12:20:01.220Z,31.70
2018-02-07T12:22:28.880Z,31.00
2018-02-07T12:24:57.048Z,33.83
2018-02-07T12:27:24.658Z,33.07
2018-02-07T12:29:52.173Z,36.07
2018-02-07T12:32:19.581Z,37.50
2018-02-07T12:34:47.087Z,36.43
2018-02-07T12:37:14.646Z,34.90
2018-02-07T12:39:42.207Z,38.00
2018-02-07T12:42:09.765Z,38.40
2018-02-07T12:44:37.325Z,39.07
2018-02-07T12:47:04.884Z,39.50
2018-02-07T12:49:32.444Z,36.40
2018-02-07T12:52:00.007Z,36.13
2018-02-07T12:54:27.563Z,31.53
2018-02-07T12:56:55.941Z,29.03
2018-02-07T12:59:23.397Z,27.43
2018-02-07T13:01:50.958Z,33.73
2018-02-07T13:04:18.415Z,33.13
2018-02-07T13:06:45.973Z,33.33
2018-02-07T13:09:13.535Z,31.77
2018-02-07T13:11:41.411Z,31.90
2018-02-07T13:14:08.960Z,31.70
2018-02-07T13:16:40.001Z,33.87
2018-02-07T13:19:07.559Z,31.60
2018-02-07T13:21:35.120Z,32.50
2018-02-07T13:24:02.679Z,34.20
2018-02-07T13:26:30.173Z,31.93
2018-02-07T13:36:18.632Z,30.63
2018-02-07T13:38:46.192Z,25.43
2018-02-07T13:41:13.751Z,26.00
2018-02-07T13:43:41.312Z,26.80
2018-02-07T13:46:08.870Z,27.63
2018-02-07T13:48:36.365Z,29.10
2018-02-07T13:51:03.822Z,27.93
2018-02-07T13:53:31.288Z,29.30
2018-02-07T13:55:58.802Z,32.10
2018-02-07T13:58:26.360Z,33.70
2018-02-07T14:00:53.921Z,32.27
2018-02-07T14:03:21.479Z,31.97
2018-02-07T14:05:48.971Z,31.07
2018-02-07T14:08:16.496Z,29.27
2018-02-07T14:10:44.055Z,30.37
2018-02-07T14:13:11.614Z,28.40
2018-02-07T14:15:39.108Z,29.33
2018-02-07T14:18:06.630Z,28.63
2018-02-07T14:20:34.292Z,28.03
2018-02-07T14:23:01.853Z,25.80
2018-02-07T14:25:29.284Z,24.87
2018-02-07T14:27:56.869Z,26.30
2018-02-07T14:30:24.325Z,26.00
2018-02-07T14:32:51.782Z,25.87
2018-02-07T14:35:19.343Z,26.70
2018-02-07T14:37:46.760Z,26.77
2018-02-07T14:40:14.192Z,26.57
2018-02-07T14:42:41.816Z,27.30
2018-02-07T14:45:09.375Z,29.97
2018-02-07T14:47:36.935Z,32.83
2018-02-07T14:50:04.433Z,32.20
2018-02-07T14:52:31.884Z,34.13
2018-02-07T14:54:59.288Z,34.07
2018-02-07T14:57:26.801Z,34.07
2018-02-07T14:59:54.424Z,32.67
2018-02-07T15:02:21.983Z,32.30
2018-02-07T15:04:49.544Z,31.00
2018-02-07T15:07:17.036Z,30.23
2018-02-07T15:09:44.560Z,31.00
2018-02-07T15:12:12.120Z,29.00
2018-02-07T15:14:39.679Z,28.63
2018-02-07T15:17:07.956Z,28.70
2018-02-07T15:19:35.412Z,28.67
2018-02-07T15:22:02.971Z,26.63
2018-02-07T15:24:30.465Z,27.00
2018-02-07T15:26:57.989Z,24.00
2018-02-07T15:29:25.548Z,24.47
2018-02-07T15:31:53.110Z,24.03
2018-02-07T15:34:20.600Z,21.70
2018-02-07T15:36:48.124Z,22.67
2018-02-07T15:39:15.684Z,21.70
2018-02-07T15:41:43.288Z,22.60
2018-02-07T15:44:10.801Z,22.60
2018-02-07T15:46:38.258Z,22.57
2018-02-07T15:49:05.818Z,22.47
2018-02-07T15:51:33.312Z,21.73
2018-02-07T15:54:00.718Z,23.70
2018-02-07T15:56:28.292Z,21.47
2018-02-07T15:58:55.849Z,22.30
2018-02-07T16:01:23.414Z,21.03
2018-02-07T16:03:50.971Z,20.70
2018-02-07T16:06:18.421Z,21.90
2018-02-07T16:08:45.921Z,21.90
2018-02-07T16:11:13.443Z,20.40
2018-02-07T16:13:41.002Z,20.40
2018-02-07T16:16:12.351Z,20.83
2018-02-07T16:18:40.372Z,21.20
2018-02-07T16:21:07.981Z,21.93
2018-02-07T16:23:35.541Z,22.20
2018-02-07T16:26:03.100Z,21.03
2018-02-07T16:28:30.660Z,21.67
2018-02-07T16:30:58.223Z,21.97
2018-02-07T16:33:25.778Z,23.10
2018-02-07T16:35:53.240Z,23.07
2018-02-07T16:38:20.727Z,22.40
2018-02-07T16:40:48.252Z,23.17
2018-02-07T16:43:15.812Z,23.47
2018-02-07T16:45:43.371Z,21.83
2018-02-07T16:48:10.865Z,22.63
2018-02-07T16:50:38.388Z,22.70
2018-02-07T16:53:05.885Z,23.17
2018-02-07T16:55:33.406Z,25.73
2018-02-07T16:58:00.896Z,24.40
2018-02-07T17:00:28.526Z,25.17
2018-02-07T17:02:56.083Z,25.43
2018-02-07T17:05:23.643Z,25.70
2018-02-07T17:07:51.108Z,26.73
2018-02-07T17:10:18.592Z,27.33
2018-02-07T17:12:46.115Z,27.17
2018-02-07T17:15:13.675Z,29.90
2018-02-07T17:17:41.234Z,28.33
2018-02-07T17:20:08.798Z,28.87
2018-02-07T17:22:36.353Z,27.63
2018-02-07T17:25:03.869Z,27.90
2018-02-07T17:27:31.473Z,29.27
2018-02-07T17:29:59.067Z,28.63
2018-02-07T17:32:26.589Z,30.53
2018-02-07T17:34:54.149Z,31.10
2018-02-07T17:37:21.724Z,30.77
2018-02-07T17:39:49.269Z,31.27
2018-02-07T17:42:16.828Z,31.00
2018-02-07T17:44:44.387Z,32.10
2018-02-07T17:47:11.950Z,31.97
2018-02-07T17:49:39.506Z,34.07
2018-02-07T17:52:07.067Z,32.87
2018-02-07T17:54:34.628Z,33.23
2018-02-07T17:57:02.044Z,37.17
2018-02-07T17:59:29.490Z,34.70
2018-02-07T18:01:57.099Z,34.70
2018-02-07T18:04:24.663Z,34.73
2018-02-07T18:06:52.283Z,36.53
2018-02-07T18:09:19.880Z,35.73
2018-02-07T18:11:47.439Z,35.93
2018-02-07T18:14:14.972Z,39.83
2018-02-07T18:16:42.558Z,37.43
2018-02-07T18:19:10.118Z,35.90
2018-02-07T18:21:41.568Z,36.87
2018-02-07T18:24:09.027Z,36.97
2018-02-07T18:26:36.532Z,36.17
2018-02-07T18:29:04.143Z,40.07
2018-02-07T18:31:31.703Z,39.80
2018-02-07T18:33:59.264Z,37.20
2018-02-07T18:36:26.823Z,39.20
2018-02-07T18:38:54.382Z,39.60
2018-02-07T18:41:21.941Z,41.27
2018-02-07T18:43:49.397Z,38.90
2018-02-07T18:46:16.893Z,40.63
2018-02-07T18:48:44.414Z,40.40
2018-02-07T18:51:11.973Z,42.10
2018-02-07T18:53:39.532Z,42.30
2018-02-07T18:56:07.093Z,40.67
2018-02-07T18:58:34.592Z,42.33
2018-02-07T19:01:02.212Z,41.30
2018-02-07T19:03:29.771Z,42.00
2018-02-07T19:05:57.266Z,41.10
2018-02-07T19:08:24.828Z,40.53
2018-02-07T19:10:52.347Z,41.67
2018-02-07T19:13:19.840Z,41.83
2018-02-07T19:15:47.302Z,43.87
2018-02-07T19:18:14.821Z,42.53
2018-02-07T19:20:42.280Z,41.23
2018-02-07T19:23:09.730Z,42.43
2018-02-07T19:25:37.294Z,42.00
2018-02-07T19:28:04.853Z,43.53
2018-02-07T19:30:32.413Z,42.37
2018-02-07T19:33:02.536Z,42.10
2018-02-07T19:35:30.201Z,43.57
2018-02-07T19:38:09.257Z,44.20
2018-02-07T19:40:39.037Z,41.70
2018-02-07T19:43:06.586Z,43.00
2018-02-07T19:45:34.876Z,43.53
2018-02-07T19:48:04.408Z,41.70
2018-02-07T19:50:32.002Z,43.80
2018-02-07T19:52:59.693Z,44.00
2018-02-07T19:55:27.261Z,41.17
2018-02-07T19:57:54.819Z,45.47
2018-02-07T20:00:24.856Z,43.40
2018-02-07T20:02:52.497Z,45.33
2018-02-07T20:05:20.015Z,43.60
2018-02-07T20:07:47.617Z,44.77
2018-02-07T20:10:15.594Z,45.70
2018-02-07T20:12:43.252Z,47.20
2018-02-07T20:15:10.908Z,48.07
2018-02-07T20:17:38.420Z,43.60
2018-02-07T20:20:05.960Z,46.57
2018-02-07T20:22:33.591Z,47.37
2018-02-07T20:25:01.148Z,47.20
2018-02-07T20:27:28.662Z,49.33
2018-02-07T20:29:56.372Z,43.60
2018-02-07T20:32:24.061Z,43.80
2018-02-07T20:34:51.590Z,44.67
2018-02-07T20:37:19.150Z,47.00
2018-02-07T20:39:46.581Z,48.90
2018-02-07T20:42:14.190Z,48.20
2018-02-07T20:44:41.667Z,47.33
2018-02-07T20:47:09.140Z,51.43
2018-02-07T20:49:36.743Z,45.90
2018-02-07T20:52:04.750Z,47.70
2018-02-07T20:54:33.785Z,45.43
2018-02-07T20:57:01.366Z,48.23
2018-02-07T20:59:29.112Z,46.80
2018-02-07T21:01:56.690Z,47.10
2018-02-07T21:04:44.936Z,48.70
2018-02-07T21:07:13.009Z,44.83
2018-02-07T21:09:40.746Z,45.17
2018-02-07T21:12:08.825Z,46.93
2018-02-07T21:14:36.399Z,45.70
2018-02-07T21:17:04.005Z,46.83
2018-02-07T21:19:31.787Z,43.60
2018-02-07T21:21:59.385Z,44.63
2018-02-07T21:24:27.156Z,44.80
2018-02-07T21:26:54.945Z,45.00
2018-02-07T21:29:23.889Z,45.70
2018-02-07T21:32:03.208Z,46.57
2018-02-07T21:34:30.870Z,47.03
2018-02-07T21:36:58.362Z,47.10
2018-02-07T21:39:25.918Z,46.37
2018-02-07T21:41:53.649Z,45.00
2018-02-07T21:44:21.089Z,42.70
2018-02-07T21:46:48.609Z,45.80
2018-02-07T21:49:16.161Z,46.53
2018-02-07T21:51:43.615Z,46.20
2018-02-07T21:54:11.118Z,44.67
2018-02-07T21:56:38.540Z,44.33
2018-02-07T21:59:06.224Z,45.10
2018-02-07T22:01:33.858Z,44.23
2018-02-07T22:04:01.828Z,43.83
2018-02-07T22:06:30.932Z,44.20
2018-02-07T22:08:59.461Z,45.77
2018-02-07T22:11:37.661Z,45.33
2018-02-07T22:14:05.273Z,44.47
2018-02-07T22:16:33.649Z,44.67
2018-02-07T22:19:01.189Z,44.40
2018-02-07T22:21:35.019Z,42.20
2018-02-07T22:24:02.559Z,41.80
2018-02-07T22:26:30.236Z,42.80
2018-02-07T22:28:57.733Z,43.07
2018-02-07T22:31:28.049Z,42.77
2018-02-07T22:33:57.004Z,42.20
2018-02-07T22:36:24.823Z,44.97
2018-02-07T22:39:02.394Z,44.17
2018-02-07T22:41:29.928Z,42.80
2018-02-07T22:43:57.590Z,43.20
2018-02-07T22:46:25.189Z,45.07
2018-02-07T22:48:53.419Z,44.33
2018-02-07T22:51:21.701Z,43.10
2018-02-07T22:53:49.263Z,42.30
2018-02-07T22:56:18.420Z,43.67
2018-02-07T22:58:46.738Z,43.90
2018-02-07T23:01:14.234Z,44.60
2018-02-07T23:03:42.414Z,45.37
2018-02-07T23:06:11.236Z,43.67
2018-02-07T23:08:39.137Z,43.37
2018-02-07T23:11:09.922Z,43.23
2018-02-07T23:13:37.456Z,45.30
2018-02-07T23:16:05.781Z,42.70
2018-02-07T23:18:33.336Z,43.90
2018-02-07T23:21:00.915Z,46.70
2018-02-07T23:23:38.417Z,45.50
2018-02-07T23:26:06.898Z,45.63
2018-02-07T23:28:35.305Z,43.93
2018-02-07T23:31:02.722Z,44.13
2018-02-07T23:33:32.060Z,43.13
2018-02-07T23:35:59.516Z,46.93
2018-02-07T23:38:30.045Z,43.93
2018-02-07T23:40:58.696Z,44.47
2018-02-07T23:43:26.112Z,47.47
2018-02-07T23:45:58.145Z,47.37
2018-02-07T23:48:36.619Z,43.27
2018-02-07T23:51:07.813Z,45.03
2018-02-07T23:53:36.497Z,44.50
2018-02-07T23:56:03.961Z,44.20
2018-02-07T23:58:31.573Z,42.37
